sensor_id;sensor_type;location;lat;lon;timestamp;pressure;altitude;pressure_sealevel;temperature;humidity
13968;BME280;39536;52.198;9.920;2023-05-29T00:01:00;101243.34;;;16.14;100.00
13968;BME280;39536;52.198;9.920;2023-05-29T00:03:27;101234.53;;;16.15;100.00
13968;BME280;39536;52.198;9.920;2023-05-29T00:05:58;101242.56;;;16.12;100.00
13968;BME280;39536;52.198;9.920;2023-05-29T00:08:27;101248.38;;;16.19;100.00
13968;BME280;39536;52.198;9.920;2023-05-29T00:10:54;101247.84;;;15.92;100.00
13968;BME280;39536;52.198;9.920;2023-05-29T00:13:21;101248.25;;;15.83;100.00
13968;BME280;39536;52.198;9.920;2023-05-29T00:15:47;101245.13;;;15.73;100.00
13968;BME280;39536;52.198;9.920;2023-05-29T00:18:14;101249.84;;;15.65;100.00
13968;BME280;39536;52.198;9.920;2023-05-29T00:20:41;101248.63;;;15.74;100.00
13968;BME280;39536;52.198;9.920;2023-05-29T00:23:07;101247.25;;;15.63;100.00
13968;BME280;39536;52.198;9.920;2023-05-29T00:25:36;101244.13;;;15.55;100.00
13968;BME280;39536;52.198;9.920;2023-05-29T00:28:03;101238.72;;;15.38;100.00
13968;BME280;39536;52.198;9.920;2023-05-29T00:30:29;101253.19;;;15.26;100.00
13968;BME280;39536;52.198;9.920;2023-05-29T00:32:56;101248.44;;;14.92;100.00
13968;BME280;39536;52.198;9.920;2023-05-29T00:35:22;101253.38;;;14.77;100.00
13968;BME280;39536;52.198;9.920;2023-05-29T00:37:49;101257.75;;;14.55;100.00
13968;BME280;39536;52.198;9.920;2023-05-29T00:40:16;101252.41;;;14.33;100.00
13968;BME280;39536;52.198;9.920;2023-05-29T00:42:44;101261.50;;;14.23;100.00
13968;BME280;39536;52.198;9.920;2023-05-29T00:45:10;101259.06;;;14.18;100.00
13968;BME280;39536;52.198;9.920;2023-05-29T00:47:38;101267.03;;;14.15;100.00
13968;BME280;39536;52.198;9.920;2023-05-29T00:50:06;101271.09;;;14.24;100.00
13968;BME280;39536;52.198;9.920;2023-05-29T00:52:35;101269.13;;;14.29;100.00
13968;BME280;39536;52.198;9.920;2023-05-29T00:55:01;101277.31;;;14.20;100.00
13968;BME280;39536;52.198;9.920;2023-05-29T00:57:28;101268.69;;;14.18;100.00
13968;BME280;39536;52.198;9.920;2023-05-29T00:59:58;101269.72;;;14.37;100.00
13968;BME280;39536;52.198;9.920;2023-05-29T01:02:26;101268.41;;;14.49;100.00
13968;BME280;39536;52.198;9.920;2023-05-29T01:04:54;101278.25;;;14.42;100.00
13968;BME280;39536;52.198;9.920;2023-05-29T01:07:21;101276.41;;;14.46;100.00
13968;BME280;39536;52.198;9.920;2023-05-29T01:09:47;101267.72;;;14.44;100.00
13968;BME280;39536;52.198;9.920;2023-05-29T01:12:24;101269.88;;;14.32;100.00
13968;BME280;39536;52.198;9.920;2023-05-29T01:15:04;101284.72;;;14.08;100.00
13968;BME280;39536;52.198;9.920;2023-05-29T01:17:37;101283.09;;;14.04;100.00
13968;BME280;39536;52.198;9.920;2023-05-29T01:20:15;101287.47;;;13.79;100.00
13968;BME280;39536;52.198;9.920;2023-05-29T01:23:02;101278.66;;;13.55;100.00
13968;BME280;39536;52.198;9.920;2023-05-29T01:25:56;101278.66;;;13.55;100.00
13968;BME280;39536;52.198;9.920;2023-05-29T01:28:31;101278.28;;;13.40;100.00
13968;BME280;39536;52.198;9.920;2023-05-29T01:31:00;101287.09;;;13.38;100.00
13968;BME280;39536;52.198;9.920;2023-05-29T01:33:27;101282.47;;;13.46;100.00
13968;BME280;39536;52.198;9.920;2023-05-29T01:35:54;101287.09;;;13.38;100.00
13968;BME280;39536;52.198;9.920;2023-05-29T01:38:20;101281.66;;;13.44;100.00
13968;BME280;39536;52.198;9.920;2023-05-29T01:40:47;101289.97;;;13.57;100.00
13968;BME280;39536;52.198;9.920;2023-05-29T01:43:14;101291.66;;;13.58;100.00
13968;BME280;39536;52.198;9.920;2023-05-29T01:45:42;101298.25;;;13.70;100.00
13968;BME280;39536;52.198;9.920;2023-05-29T01:48:09;101299.34;;;13.89;100.00
13968;BME280;39536;52.198;9.920;2023-05-29T01:50:36;101305.50;;;13.88;100.00
13968;BME280;39536;52.198;9.920;2023-05-29T01:53:03;101306.97;;;13.97;100.00
13968;BME280;39536;52.198;9.920;2023-05-29T01:55:30;101308.56;;;14.01;100.00
13968;BME280;39536;52.198;9.920;2023-05-29T01:57:56;101315.19;;;14.11;100.00
13968;BME280;39536;52.198;9.920;2023-05-29T02:00:23;101310.81;;;14.12;100.00
13968;BME280;39536;52.198;9.920;2023-05-29T02:02:51;101316.47;;;13.99;100.00
13968;BME280;39536;52.198;9.920;2023-05-29T02:05:18;101307.78;;;13.99;100.00
13968;BME280;39536;52.198;9.920;2023-05-29T02:07:45;101306.75;;;14.03;100.00
13968;BME280;39536;52.198;9.920;2023-05-29T02:10:12;101310.59;;;13.93;100.00
13968;BME280;39536;52.198;9.920;2023-05-29T02:12:38;101309.03;;;13.87;100.00
13968;BME280;39536;52.198;9.920;2023-05-29T02:15:06;101311.22;;;13.74;100.00
13968;BME280;39536;52.198;9.920;2023-05-29T02:17:33;101307.63;;;13.77;100.00
13968;BME280;39536;52.198;9.920;2023-05-29T02:20:01;101311.00;;;13.80;100.00
13968;BME280;39536;52.198;9.920;2023-05-29T02:22:28;101309.38;;;13.76;100.00
13968;BME280;39536;52.198;9.920;2023-05-29T02:24:54;101314.13;;;13.65;100.00
13968;BME280;39536;52.198;9.920;2023-05-29T02:27:21;101310.28;;;13.49;100.00
13968;BME280;39536;52.198;9.920;2023-05-29T02:29:48;101322.03;;;13.37;100.00
13968;BME280;39536;52.198;9.920;2023-05-29T02:32:14;101332.38;;;13.10;100.00
13968;BME280;39536;52.198;9.920;2023-05-29T02:34:41;101325.41;;;13.11;100.00
13968;BME280;39536;52.198;9.920;2023-05-29T02:37:09;101328.78;;;13.14;100.00
13968;BME280;39536;52.198;9.920;2023-05-29T02:39:35;101334.31;;;13.05;100.00
13968;BME280;39536;52.198;9.920;2023-05-29T02:42:02;101330.69;;;13.09;100.00
13968;BME280;39536;52.198;9.920;2023-05-29T02:44:29;101334.22;;;13.08;100.00
13968;BME280;39536;52.198;9.920;2023-05-29T02:46:55;101334.78;;;13.18;100.00
13968;BME280;39536;52.198;9.920;2023-05-29T02:49:22;101337.81;;;13.04;100.00
13968;BME280;39536;52.198;9.920;2023-05-29T02:51:48;101344.69;;;13.08;100.00
13968;BME280;39536;52.198;9.920;2023-05-29T02:54:17;101342.56;;;13.20;100.00
13968;BME280;39536;52.198;9.920;2023-05-29T02:56:43;101349.78;;;13.11;100.00
13968;BME280;39536;52.198;9.920;2023-05-29T02:59:10;101349.75;;;13.13;100.00
13968;BME280;39536;52.198;9.920;2023-05-29T03:01:36;101355.00;;;13.13;100.00
13968;BME280;39536;52.198;9.920;2023-05-29T03:04:03;101348.81;;;13.15;100.00
13968;BME280;39536;52.198;9.920;2023-05-29T03:06:30;101342.44;;;13.24;100.00
13968;BME280;39536;52.198;9.920;2023-05-29T03:08:57;101348.50;;;13.26;100.00
13968;BME280;39536;52.198;9.920;2023-05-29T03:11:26;101349.03;;;13.37;100.00
13968;BME280;39536;52.198;9.920;2023-05-29T03:13:54;101339.34;;;13.41;100.00
13968;BME280;39536;52.198;9.920;2023-05-29T03:16:20;101339.56;;;13.61;100.00
13968;BME280;39536;52.198;9.920;2023-05-29T03:18:47;101348.09;;;13.67;100.00
13968;BME280;39536;52.198;9.920;2023-05-29T03:21:14;101350.41;;;13.77;100.00
13968;BME280;39536;52.198;9.920;2023-05-29T03:23:40;101348.94;;;13.69;100.00
13968;BME280;39536;52.198;9.920;2023-05-29T03:26:07;101345.59;;;13.63;100.00
13968;BME280;39536;52.198;9.920;2023-05-29T03:28:35;101350.63;;;13.43;100.00
13968;BME280;39536;52.198;9.920;2023-05-29T03:31:01;101356.84;;;13.39;100.00
13968;BME280;39536;52.198;9.920;2023-05-29T03:33:28;101360.72;;;13.27;100.00
13968;BME280;39536;52.198;9.920;2023-05-29T03:35:54;101357.34;;;13.22;100.00
13968;BME280;39536;52.198;9.920;2023-05-29T03:38:21;101356.56;;;13.18;100.00
13968;BME280;39536;52.198;9.920;2023-05-29T03:40:48;101356.13;;;13.04;100.00
13968;BME280;39536;52.198;9.920;2023-05-29T03:43:15;101345.16;;;13.21;100.00
13968;BME280;39536;52.198;9.920;2023-05-29T03:45:43;101343.25;;;13.28;100.00
13968;BME280;39536;52.198;9.920;2023-05-29T03:48:10;101352.88;;;13.26;100.00
13968;BME280;39536;52.198;9.920;2023-05-29T03:50:36;101362.19;;;13.05;100.00
13968;BME280;39536;52.198;9.920;2023-05-29T03:53:03;101362.53;;;12.94;100.00
13968;BME280;39536;52.198;9.920;2023-05-29T03:55:31;101374.59;;;12.68;100.00
13968;BME280;39536;52.198;9.920;2023-05-29T03:57:58;101375.81;;;12.55;100.00
13968;BME280;39536;52.198;9.920;2023-05-29T04:00:24;101378.38;;;12.24;100.00
13968;BME280;39536;52.198;9.920;2023-05-29T04:02:52;101377.84;;;12.11;100.00
13968;BME280;39536;52.198;9.920;2023-05-29T04:05:19;101383.38;;;11.99;100.00
13968;BME280;39536;52.198;9.920;2023-05-29T04:07:46;101379.66;;;12.09;100.00
13968;BME280;39536;52.198;9.920;2023-05-29T04:10:12;101382.59;;;12.30;100.00
13968;BME280;39536;52.198;9.920;2023-05-29T04:12:39;101380.72;;;12.35;100.00
13968;BME280;39536;52.198;9.920;2023-05-29T04:15:07;101378.38;;;12.24;100.00
13968;BME280;39536;52.198;9.920;2023-05-29T04:17:34;101382.25;;;12.09;100.00
13968;BME280;39536;52.198;9.920;2023-05-29T04:20:02;101390.25;;;12.03;100.00
13968;BME280;39536;52.198;9.920;2023-05-29T04:22:34;101381.16;;;12.18;100.00
13968;BME280;39536;52.198;9.920;2023-05-29T04:25:00;101387.09;;;12.24;100.00
13968;BME280;39536;52.198;9.920;2023-05-29T04:27:28;101388.13;;;12.17;100.00
13968;BME280;39536;52.198;9.920;2023-05-29T04:29:57;101387.03;;;12.26;100.00
13968;BME280;39536;52.198;9.920;2023-05-29T04:32:23;101383.13;;;12.08;100.00
13968;BME280;39536;52.198;9.920;2023-05-29T04:34:51;101379.59;;;12.11;100.00
13968;BME280;39536;52.198;9.920;2023-05-29T04:37:19;101384.03;;;12.07;100.00
13968;BME280;39536;52.198;9.920;2023-05-29T04:39:54;101387.56;;;12.06;100.00
13968;BME280;39536;52.198;9.920;2023-05-29T04:42:21;101389.72;;;12.23;100.00
13968;BME280;39536;52.198;9.920;2023-05-29T04:44:50;101393.09;;;12.28;100.00
13968;BME280;39536;52.198;9.920;2023-05-29T04:47:17;101397.78;;;12.48;100.00
13968;BME280;39536;52.198;9.920;2023-05-29T04:49:44;101393.25;;;12.55;100.00
13968;BME280;39536;52.198;9.920;2023-05-29T04:52:14;101393.31;;;12.52;100.00
13968;BME280;39536;52.198;9.920;2023-05-29T04:54:42;101397.69;;;12.51;100.00
13968;BME280;39536;52.198;9.920;2023-05-29T04:57:09;101400.53;;;12.43;100.00
13968;BME280;39536;52.198;9.920;2023-05-29T04:59:36;101401.41;;;12.08;100.00
13968;BME280;39536;52.198;9.920;2023-05-29T05:02:02;101406.50;;;12.14;100.00
13968;BME280;39536;52.198;9.920;2023-05-29T05:04:29;101408.25;;;12.14;100.00
13968;BME280;39536;52.198;9.920;2023-05-29T05:06:56;101410.13;;;12.43;100.00
13968;BME280;39536;52.198;9.920;2023-05-29T05:09:22;101406.63;;;12.44;100.00
13968;BME280;39536;52.198;9.920;2023-05-29T05:11:50;101406.88;;;12.33;100.00
13968;BME280;39536;52.198;9.920;2023-05-29T05:14:17;101401.38;;;12.44;100.00
13968;BME280;39536;52.198;9.920;2023-05-29T05:16:43;101406.22;;;12.58;100.00
13968;BME280;39536;52.198;9.920;2023-05-29T05:19:10;101407.81;;;12.65;100.00
13968;BME280;39536;52.198;9.920;2023-05-29T05:21:37;101400.31;;;12.51;100.00
13968;BME280;39536;52.198;9.920;2023-05-29T05:24:03;101402.00;;;12.54;100.00
13968;BME280;39536;52.198;9.920;2023-05-29T05:26:30;101412.03;;;12.69;100.00
13968;BME280;39536;52.198;9.920;2023-05-29T05:28:58;101409.53;;;12.64;100.00
13968;BME280;39536;52.198;9.920;2023-05-29T05:31:26;101400.91;;;12.62;100.00
13968;BME280;39536;52.198;9.920;2023-05-29T05:33:52;101399.88;;;12.68;100.00
13968;BME280;39536;52.198;9.920;2023-05-29T05:36:19;101397.69;;;12.84;100.00
13968;BME280;39536;52.198;9.920;2023-05-29T05:38:46;101395.06;;;12.84;100.00
13968;BME280;39536;52.198;9.920;2023-05-29T05:41:12;101399.06;;;12.97;100.00
13968;BME280;39536;52.198;9.920;2023-05-29T05:43:39;101405.38;;;13.20;100.00
13968;BME280;39536;52.198;9.920;2023-05-29T05:46:07;101405.38;;;13.20;100.00
13968;BME280;39536;52.198;9.920;2023-05-29T05:48:34;101399.69;;;13.05;100.00
13968;BME280;39536;52.198;9.920;2023-05-29T05:51:00;101399.16;;;12.92;100.00
13968;BME280;39536;52.198;9.920;2023-05-29T05:53:27;101399.59;;;13.08;100.00
13968;BME280;39536;52.198;9.920;2023-05-29T05:55:54;101408.75;;;13.25;100.00
13968;BME280;39536;52.198;9.920;2023-05-29T05:58:21;101404.94;;;13.35;100.00
13968;BME280;39536;52.198;9.920;2023-05-29T06:00:47;101409.44;;;13.30;100.00
13968;BME280;39536;52.198;9.920;2023-05-29T06:03:19;101408.91;;;13.18;100.00
13968;BME280;39536;52.198;9.920;2023-05-29T06:05:45;101411.69;;;13.42;100.00
13968;BME280;39536;52.198;9.920;2023-05-29T06:08:12;101407.72;;;13.30;100.00
13968;BME280;39536;52.198;9.920;2023-05-29T06:10:40;101418.75;;;13.40;100.00
13968;BME280;39536;52.198;9.920;2023-05-29T06:13:07;101421.84;;;13.53;100.00
13968;BME280;39536;52.198;9.920;2023-05-29T06:15:33;101415.78;;;13.52;100.00
13968;BME280;39536;52.198;9.920;2023-05-29T06:18:01;101421.56;;;13.62;100.00
13968;BME280;39536;52.198;9.920;2023-05-29T06:20:29;101408.41;;;13.35;100.00
13968;BME280;39536;52.198;9.920;2023-05-29T06:22:55;101425.69;;;13.71;100.00
13968;BME280;39536;52.198;9.920;2023-05-29T06:25:23;101420.28;;;13.75;100.00
13968;BME280;39536;52.198;9.920;2023-05-29T06:27:57;101420.41;;;13.99;100.00
13968;BME280;39536;52.198;9.920;2023-05-29T06:30:23;101414.91;;;14.06;100.00
13968;BME280;39536;52.198;9.920;2023-05-29T06:32:50;101416.13;;;13.96;100.00
13968;BME280;39536;52.198;9.920;2023-05-29T06:35:17;101422.31;;;13.94;100.00
13968;BME280;39536;52.198;9.920;2023-05-29T06:37:45;101419.78;;;13.91;100.00
13968;BME280;39536;52.198;9.920;2023-05-29T06:40:12;101421.19;;;14.01;100.00
13968;BME280;39536;52.198;9.920;2023-05-29T06:42:39;101427.00;;;13.84;100.00
13968;BME280;39536;52.198;9.920;2023-05-29T06:45:06;101425.28;;;14.09;100.00
13968;BME280;39536;52.198;9.920;2023-05-29T06:47:33;101423.72;;;14.04;100.00
13968;BME280;39536;52.198;9.920;2023-05-29T06:50:00;101432.63;;;14.25;100.00
13968;BME280;39536;52.198;9.920;2023-05-29T06:52:26;101424.16;;;14.17;100.00
13968;BME280;39536;52.198;9.920;2023-05-29T06:54:54;101431.53;;;14.05;100.00
13968;BME280;39536;52.198;9.920;2023-05-29T06:57:22;101434.94;;;14.07;100.00
13968;BME280;39536;52.198;9.920;2023-05-29T06:59:48;101440.75;;;14.17;100.00
13968;BME280;39536;52.198;9.920;2023-05-29T07:02:15;101448.63;;;14.42;100.00
13968;BME280;39536;52.198;9.920;2023-05-29T07:04:41;101453.88;;;14.42;100.00
13968;BME280;39536;52.198;9.920;2023-05-29T07:07:08;101458.28;;;14.42;100.00
13968;BME280;39536;52.198;9.920;2023-05-29T07:09:35;101468.19;;;14.33;100.00
13968;BME280;39536;52.198;9.920;2023-05-29T07:12:03;101462.47;;;14.47;100.00
13968;BME280;39536;52.198;9.920;2023-05-29T07:14:29;101454.75;;;14.69;100.00
13968;BME280;39536;52.198;9.920;2023-05-29T07:16:56;101459.44;;;14.60;100.00
13968;BME280;39536;52.198;9.920;2023-05-29T07:19:22;101457.19;;;14.49;100.00
13968;BME280;39536;52.198;9.920;2023-05-29T07:21:49;101464.00;;;14.28;100.00
13968;BME280;39536;52.198;9.920;2023-05-29T07:24:16;101474.97;;;14.13;100.00
13968;BME280;39536;52.198;9.920;2023-05-29T07:26:42;101469.28;;;14.53;100.00
13968;BME280;39536;52.198;9.920;2023-05-29T07:29:10;101470.22;;;14.77;100.00
13968;BME280;39536;52.198;9.920;2023-05-29T07:31:37;101471.00;;;14.79;100.00
13968;BME280;39536;52.198;9.920;2023-05-29T07:34:05;101468.56;;;14.74;100.00
13968;BME280;39536;52.198;9.920;2023-05-29T07:36:32;101472.53;;;14.86;100.00
13968;BME280;39536;52.198;9.920;2023-05-29T07:38:58;101477.56;;;14.92;100.00
13968;BME280;39536;52.198;9.920;2023-05-29T07:41:25;101472.38;;;15.14;100.00
13968;BME280;39536;52.198;9.920;2023-05-29T07:43:52;101478.72;;;15.09;100.00
13968;BME280;39536;52.198;9.920;2023-05-29T07:46:22;101472.31;;;14.92;100.00
13968;BME280;39536;52.198;9.920;2023-05-29T07:48:48;101473.72;;;15.01;100.00
13968;BME280;39536;52.198;9.920;2023-05-29T07:51:15;101477.63;;;15.14;100.00
13968;BME280;39536;52.198;9.920;2023-05-29T07:53:43;101462.56;;;15.43;100.00
13968;BME280;39536;52.198;9.920;2023-05-29T07:56:10;101461.00;;;15.61;100.00
13968;BME280;39536;52.198;9.920;2023-05-29T07:58:37;101465.56;;;15.56;100.00
13968;BME280;39536;52.198;9.920;2023-05-29T08:01:05;101462.94;;;15.79;100.00
13968;BME280;39536;52.198;9.920;2023-05-29T08:03:33;101466.16;;;16.30;100.00
13968;BME280;39536;52.198;9.920;2023-05-29T08:05:59;101472.69;;;16.62;100.00
13968;BME280;39536;52.198;9.920;2023-05-29T08:08:26;101466.53;;;16.41;100.00
13968;BME280;39536;52.198;9.920;2023-05-29T08:10:53;101460.25;;;16.45;100.00
13968;BME280;39536;52.198;9.920;2023-05-29T08:13:19;101468.09;;;16.88;100.00
13968;BME280;39536;52.198;9.920;2023-05-29T08:15:46;101461.69;;;17.14;100.00
13968;BME280;39536;52.198;9.920;2023-05-29T08:18:12;101465.56;;;17.05;100.00
13968;BME280;39536;52.198;9.920;2023-05-29T08:20:40;101463.34;;;16.75;100.00
13968;BME280;39536;52.198;9.920;2023-05-29T08:23:08;101469.78;;;16.68;100.00
13968;BME280;39536;52.198;9.920;2023-05-29T08:25:34;101467.25;;;16.87;100.00
13968;BME280;39536;52.198;9.920;2023-05-29T08:28:01;101464.19;;;16.96;100.00
13968;BME280;39536;52.198;9.920;2023-05-29T08:30:28;101468.41;;;17.00;100.00
13968;BME280;39536;52.198;9.920;2023-05-29T08:32:54;101457.41;;;17.30;100.00
13968;BME280;39536;52.198;9.920;2023-05-29T08:35:21;101469.38;;;17.37;100.00
13968;BME280;39536;52.198;9.920;2023-05-29T08:37:49;101466.97;;;17.51;100.00
13968;BME280;39536;52.198;9.920;2023-05-29T08:40:16;101466.41;;;17.26;100.00
13968;BME280;39536;52.198;9.920;2023-05-29T08:42:46;101462.75;;;17.28;100.00
13968;BME280;39536;52.198;9.920;2023-05-29T08:45:14;101468.88;;;17.48;100.00
13968;BME280;39536;52.198;9.920;2023-05-29T08:47:41;101463.94;;;17.21;100.00
13968;BME280;39536;52.198;9.920;2023-05-29T08:50:08;101466.81;;;17.36;100.00
13968;BME280;39536;52.198;9.920;2023-05-29T08:52:36;101467.44;;;17.41;100.00
13968;BME280;39536;52.198;9.920;2023-05-29T08:55:06;101457.56;;;17.65;100.00
13968;BME280;39536;52.198;9.920;2023-05-29T08:57:34;101466.38;;;18.02;100.00
13968;BME280;39536;52.198;9.920;2023-05-29T09:00:02;101463.03;;;17.98;100.00
13968;BME280;39536;52.198;9.920;2023-05-29T09:02:33;101456.72;;;18.00;100.00
13968;BME280;39536;52.198;9.920;2023-05-29T09:05:01;101463.81;;;18.35;100.00
13968;BME280;39536;52.198;9.920;2023-05-29T09:07:27;101465.00;;;18.46;100.00
13968;BME280;39536;52.198;9.920;2023-05-29T09:09:54;101468.66;;;17.90;100.00
13968;BME280;39536;52.198;9.920;2023-05-29T09:12:22;101463.06;;;17.79;100.00
13968;BME280;39536;52.198;9.920;2023-05-29T09:14:49;101466.13;;;17.51;100.00
13968;BME280;39536;52.198;9.920;2023-05-29T09:17:15;101468.75;;;17.32;100.00
13968;BME280;39536;52.198;9.920;2023-05-29T09:19:42;101476.94;;;17.26;100.00
13968;BME280;39536;52.198;9.920;2023-05-29T09:22:11;101468.56;;;17.35;100.00
13968;BME280;39536;52.198;9.920;2023-05-29T09:24:40;101466.31;;;17.65;100.00
13968;BME280;39536;52.198;9.920;2023-05-29T09:27:08;101461.88;;;17.85;100.00
13968;BME280;39536;52.198;9.920;2023-05-29T09:29:39;101470.63;;;18.21;100.00
13968;BME280;39536;52.198;9.920;2023-05-29T09:32:07;101469.59;;;18.26;100.00
13968;BME280;39536;52.198;9.920;2023-05-29T09:34:34;101468.78;;;18.23;100.00
13968;BME280;39536;52.198;9.920;2023-05-29T09:37:02;101463.72;;;18.19;100.00
13968;BME280;39536;52.198;9.920;2023-05-29T09:39:34;101462.47;;;17.91;100.00
13968;BME280;39536;52.198;9.920;2023-05-29T09:42:00;101470.88;;;18.17;100.00
13968;BME280;39536;52.198;9.920;2023-05-29T09:44:28;101487.06;;;18.09;100.00
13968;BME280;39536;52.198;9.920;2023-05-29T09:46:59;101476.94;;;18.36;100.00
13968;BME280;39536;52.198;9.920;2023-05-29T09:49:26;101486.66;;;18.36;100.00
13968;BME280;39536;52.198;9.920;2023-05-29T09:51:53;101479.66;;;18.35;100.00
13968;BME280;39536;52.198;9.920;2023-05-29T09:54:20;101475.16;;;18.37;100.00
13968;BME280;39536;52.198;9.920;2023-05-29T09:56:47;101473.13;;;18.07;100.00
13968;BME280;39536;52.198;9.920;2023-05-29T09:59:15;101462.69;;;17.87;100.00
13968;BME280;39536;52.198;9.920;2023-05-29T10:01:44;101457.59;;;18.18;100.00
13968;BME280;39536;52.198;9.920;2023-05-29T10:04:12;101461.66;;;18.26;100.00
13968;BME280;39536;52.198;9.920;2023-05-29T10:06:41;101462.59;;;18.42;100.00
13968;BME280;39536;52.198;9.920;2023-05-29T10:09:12;101463.50;;;18.58;100.00
13968;BME280;39536;52.198;9.920;2023-05-29T10:11:40;101471.25;;;18.96;100.00
13968;BME280;39536;52.198;9.920;2023-05-29T10:14:09;101460.97;;;18.74;100.00
13968;BME280;39536;52.198;9.920;2023-05-29T10:16:42;101464.06;;;19.31;100.00
13968;BME280;39536;52.198;9.920;2023-05-29T10:19:14;101457.47;;;19.72;100.00
13968;BME280;39536;52.198;9.920;2023-05-29T10:21:43;101457.66;;;19.84;100.00
13968;BME280;39536;52.198;9.920;2023-05-29T10:24:11;101449.00;;;19.18;100.00
13968;BME280;39536;52.198;9.920;2023-05-29T10:26:39;101455.81;;;18.71;100.00
13968;BME280;39536;52.198;9.920;2023-05-29T10:29:14;101456.59;;;18.90;100.00
13968;BME280;39536;52.198;9.920;2023-05-29T10:31:51;101459.97;;;19.10;100.00
13968;BME280;39536;52.198;9.920;2023-05-29T10:34:30;101454.09;;;18.87;100.00
13968;BME280;39536;52.198;9.920;2023-05-29T10:37:03;101451.00;;;19.12;100.00
13968;BME280;39536;52.198;9.920;2023-05-29T10:39:31;101442.44;;;19.25;100.00
13968;BME280;39536;52.198;9.920;2023-05-29T10:41:58;101438.53;;;19.32;99.75
13968;BME280;39536;52.198;9.920;2023-05-29T10:44:38;101444.56;;;19.18;98.40
13968;BME280;39536;52.198;9.920;2023-05-29T10:47:06;101443.31;;;19.25;97.87
13968;BME280;39536;52.198;9.920;2023-05-29T10:49:35;101433.16;;;19.33;98.60
13968;BME280;39536;52.198;9.920;2023-05-29T10:52:03;101425.84;;;19.23;94.91
13968;BME280;39536;52.198;9.920;2023-05-29T10:54:40;101436.03;;;18.97;98.71
13968;BME280;39536;52.198;9.920;2023-05-29T10:57:08;101441.59;;;19.24;99.09
13968;BME280;39536;52.198;9.920;2023-05-29T10:59:36;101431.63;;;19.61;95.05
13968;BME280;39536;52.198;9.920;2023-05-29T11:02:04;101441.16;;;19.95;94.57
13968;BME280;39536;52.198;9.920;2023-05-29T11:04:31;101430.72;;;20.08;91.05
13968;BME280;39536;52.198;9.920;2023-05-29T11:07:00;101433.75;;;19.86;87.12
13968;BME280;39536;52.198;9.920;2023-05-29T11:09:32;101431.13;;;19.86;89.06
13968;BME280;39536;52.198;9.920;2023-05-29T11:12:14;101430.97;;;19.73;88.08
13968;BME280;39536;52.198;9.920;2023-05-29T11:14:54;101433.19;;;20.11;89.20
13968;BME280;39536;52.198;9.920;2023-05-29T11:17:32;101426.47;;;20.05;89.41
13968;BME280;39536;52.198;9.920;2023-05-29T11:20:02;101430.28;;;19.86;87.89
13968;BME280;39536;52.198;9.920;2023-05-29T11:23:00;101415.72;;;20.08;86.65
13968;BME280;39536;52.198;9.920;2023-05-29T11:25:28;101418.66;;;20.18;86.73
13968;BME280;39536;52.198;9.920;2023-05-29T11:27:55;101414.63;;;20.27;86.43
13968;BME280;39536;52.198;9.920;2023-05-29T11:30:22;101419.44;;;20.20;87.38
13968;BME280;39536;52.198;9.920;2023-05-29T11:32:49;101421.91;;;20.53;85.89
13968;BME280;39536;52.198;9.920;2023-05-29T11:35:21;101422.88;;;20.81;82.63
13968;BME280;39536;52.198;9.920;2023-05-29T11:37:49;101417.34;;;20.56;82.63
13968;BME280;39536;52.198;9.920;2023-05-29T11:40:16;101422.75;;;20.54;84.82
13968;BME280;39536;52.198;9.920;2023-05-29T11:42:44;101420.22;;;20.95;83.25
13968;BME280;39536;52.198;9.920;2023-05-29T11:45:12;101417.88;;;20.91;82.97
13968;BME280;39536;52.198;9.920;2023-05-29T11:48:02;101405.94;;;20.69;79.53
13968;BME280;39536;52.198;9.920;2023-05-29T11:50:30;101421.91;;;20.68;79.93
13968;BME280;39536;52.198;9.920;2023-05-29T11:52:58;101420.78;;;21.01;78.84
13968;BME280;39536;52.198;9.920;2023-05-29T11:55:26;101421.22;;;21.50;76.54
13968;BME280;39536;52.198;9.920;2023-05-29T11:57:56;101419.31;;;21.52;73.79
13968;BME280;39536;52.198;9.920;2023-05-29T12:00:23;101419.16;;;21.27;70.94
13968;BME280;39536;52.198;9.920;2023-05-29T12:02:50;101419.78;;;21.30;72.07
13968;BME280;39536;52.198;9.920;2023-05-29T12:05:18;101423.63;;;20.83;73.62
13968;BME280;39536;52.198;9.920;2023-05-29T12:07:48;101415.69;;;20.69;73.43
13968;BME280;39536;52.198;9.920;2023-05-29T12:10:18;101409.13;;;20.74;75.96
13968;BME280;39536;52.198;9.920;2023-05-29T12:12:48;101402.78;;;21.20;72.48
13968;BME280;39536;52.198;9.920;2023-05-29T12:15:15;101402.66;;;21.77;71.39
13968;BME280;39536;52.198;9.920;2023-05-29T12:17:43;101403.25;;;21.95;70.44
13968;BME280;39536;52.198;9.920;2023-05-29T12:20:11;101403.44;;;21.65;69.84
13968;BME280;39536;52.198;9.920;2023-05-29T12:22:39;101403.66;;;21.62;70.29
13968;BME280;39536;52.198;9.920;2023-05-29T12:25:08;101399.75;;;21.95;69.73
13968;BME280;39536;52.198;9.920;2023-05-29T12:27:37;101399.03;;;21.65;68.33
13968;BME280;39536;52.198;9.920;2023-05-29T12:30:09;101400.34;;;21.85;70.71
13968;BME280;39536;52.198;9.920;2023-05-29T12:32:37;101394.47;;;22.07;69.57
13968;BME280;39536;52.198;9.920;2023-05-29T12:35:11;101394.75;;;21.90;66.47
13968;BME280;39536;52.198;9.920;2023-05-29T12:37:42;101394.97;;;21.60;68.39
13968;BME280;39536;52.198;9.920;2023-05-29T12:40:10;101403.16;;;21.28;70.24
13968;BME280;39536;52.198;9.920;2023-05-29T12:42:39;101390.09;;;21.25;71.62
13968;BME280;39536;52.198;9.920;2023-05-29T12:45:07;101392.94;;;21.36;69.27